sensor_id;sensor_type;location;lat;lon;timestamp;pressure;altitude;pressure_sealevel;temperature;humidity
74103;BME280;62853;46.166;3.640;2023-03-19T00:00:52;100921.28;;;10.59;100.00
74103;BME280;62853;46.166;3.640;2023-03-19T00:03:17;100932.50;;;10.63;100.00
74103;BME280;62853;46.166;3.640;2023-03-19T00:05:52;100925.50;;;10.62;100.00
74103;BME280;62853;46.166;3.640;2023-03-19T00:08:17;100924.97;;;10.55;100.00
74103;BME280;62853;46.166;3.640;2023-03-19T00:10:43;100933.56;;;10.59;100.00
74103;BME280;62853;46.166;3.640;2023-03-19T00:13:09;100923.22;;;10.56;100.00
74103;BME280;62853;46.166;3.640;2023-03-19T00:15:34;100924.06;;;10.56;100.00
74103;BME280;62853;46.166;3.640;2023-03-19T00:18:00;100928.50;;;10.56;100.00
74103;BME280;62853;46.166;3.640;2023-03-19T00:20:26;100928.97;;;10.47;100.00
74103;BME280;62853;46.166;3.640;2023-03-19T00:22:51;100925.41;;;10.48;100.00
74103;BME280;62853;46.166;3.640;2023-03-19T00:25:16;100928.66;;;10.53;100.00
74103;BME280;62853;46.166;3.640;2023-03-19T00:27:42;100932.19;;;10.52;100.00
74103;BME280;62853;46.166;3.640;2023-03-19T00:30:09;100932.88;;;10.55;100.00
74103;BME280;62853;46.166;3.640;2023-03-19T00:32:35;100936.69;;;10.50;100.00
74103;BME280;62853;46.166;3.640;2023-03-19T00:35:01;100937.53;;;10.50;100.00
74103;BME280;62853;46.166;3.640;2023-03-19T00:37:27;100947.09;;;10.53;100.00
74103;BME280;62853;46.166;3.640;2023-03-19T00:39:53;100943.50;;;10.54;100.00
74103;BME280;62853;46.166;3.640;2023-03-19T00:42:18;100939.19;;;10.53;100.00
74103;BME280;62853;46.166;3.640;2023-03-19T00:44:44;100942.97;;;10.47;100.00
74103;BME280;62853;46.166;3.640;2023-03-19T00:47:09;100953.63;;;10.46;100.00
74103;BME280;62853;46.166;3.640;2023-03-19T00:49:34;100950.09;;;10.45;100.00
74103;BME280;62853;46.166;3.640;2023-03-19T00:52:00;100947.47;;;10.45;100.00
74103;BME280;62853;46.166;3.640;2023-03-19T00:54:25;100939.81;;;10.40;100.00
74103;BME280;62853;46.166;3.640;2023-03-19T00:56:51;100940.91;;;10.36;100.00
74103;BME280;62853;46.166;3.640;2023-03-19T00:59:16;100944.22;;;10.40;100.00
74103;BME280;62853;46.166;3.640;2023-03-19T01:01:42;100942.72;;;10.36;100.00
74103;BME280;62853;46.166;3.640;2023-03-19T01:04:07;100949.41;;;10.41;100.00
74103;BME280;62853;46.166;3.640;2023-03-19T01:06:32;100934.97;;;10.33;100.00
74103;BME280;62853;46.166;3.640;2023-03-19T01:08:58;100956.56;;;10.39;100.00
74103;BME280;62853;46.166;3.640;2023-03-19T01:11:23;100950.59;;;10.36;100.00
74103;BME280;62853;46.166;3.640;2023-03-19T01:13:49;100946.25;;;10.35;100.00
74103;BME280;62853;46.166;3.640;2023-03-19T01:16:14;100952.53;;;10.32;100.00
74103;BME280;62853;46.166;3.640;2023-03-19T01:18:40;100949.84;;;10.34;100.00
74103;BME280;62853;46.166;3.640;2023-03-19T01:21:05;100950.94;;;10.28;100.00
74103;BME280;62853;46.166;3.640;2023-03-19T01:23:32;100943.22;;;10.25;100.00
74103;BME280;62853;46.166;3.640;2023-03-19T01:25:58;100936.25;;;10.24;100.00
74103;BME280;62853;46.166;3.640;2023-03-19T01:28:23;100949.44;;;10.24;100.00
74103;BME280;62853;46.166;3.640;2023-03-19T01:30:48;100944.84;;;10.28;100.00
74103;BME280;62853;46.166;3.640;2023-03-19T01:33:15;100939.81;;;10.23;100.00
74103;BME280;62853;46.166;3.640;2023-03-19T01:35:40;100946.03;;;10.22;100.00
74103;BME280;62853;46.166;3.640;2023-03-19T01:38:07;100949.34;;;10.26;100.00
74103;BME280;62853;46.166;3.640;2023-03-19T01:40:32;100933.94;;;10.18;100.00
74103;BME280;62853;46.166;3.640;2023-03-19T01:43:16;100954.69;;;10.24;100.00
74103;BME280;62853;46.166;3.640;2023-03-19T01:45:44;100939.06;;;10.21;100.00
74103;BME280;62853;46.166;3.640;2023-03-19T01:48:27;100949.88;;;10.15;100.00
74103;BME280;62853;46.166;3.640;2023-03-19T01:50:53;100946.41;;;10.14;100.00
74103;BME280;62853;46.166;3.640;2023-03-19T01:53:23;100933.31;;;10.13;100.00
74103;BME280;62853;46.166;3.640;2023-03-19T01:55:51;100955.06;;;10.16;100.00
74103;BME280;62853;46.166;3.640;2023-03-19T01:58:19;100945.22;;;10.20;100.00
74103;BME280;62853;46.166;3.640;2023-03-19T02:00:45;100951.19;;;10.23;100.00
74103;BME280;62853;46.166;3.640;2023-03-19T02:03:11;100947.63;;;10.24;100.00
74103;BME280;62853;46.166;3.640;2023-03-19T02:05:38;100941.53;;;10.24;100.00
74103;BME280;62853;46.166;3.640;2023-03-19T02:08:07;100942.53;;;10.21;100.00
74103;BME280;62853;46.166;3.640;2023-03-19T02:10:36;100950.19;;;10.26;100.00
74103;BME280;62853;46.166;3.640;2023-03-19T02:13:01;100951.03;;;10.27;100.00
74103;BME280;62853;46.166;3.640;2023-03-19T02:15:27;100955.38;;;10.28;100.00
74103;BME280;62853;46.166;3.640;2023-03-19T02:17:52;100951.91;;;10.27;100.00
74103;BME280;62853;46.166;3.640;2023-03-19T02:20:34;100954.31;;;10.32;100.00
74103;BME280;62853;46.166;3.640;2023-03-19T02:25:41;100946.63;;;10.27;100.00
74103;BME280;62853;46.166;3.640;2023-03-19T02:28:11;100946.72;;;10.26;100.00
74103;BME280;62853;46.166;3.640;2023-03-19T02:30:39;100945.84;;;10.25;100.00
74103;BME280;62853;46.166;3.640;2023-03-19T02:33:05;100954.44;;;10.29;100.00
74103;BME280;62853;46.166;3.640;2023-03-19T02:35:32;100939.81;;;10.23;100.00
74103;BME280;62853;46.166;3.640;2023-03-19T02:38:00;100958.84;;;10.28;100.00
74103;BME280;62853;46.166;3.640;2023-03-19T02:40:33;100952.75;;;10.28;100.00
74103;BME280;62853;46.166;3.640;2023-03-19T02:43:01;100932.75;;;10.23;100.00
74103;BME280;62853;46.166;3.640;2023-03-19T02:45:30;100946.53;;;10.29;100.00
74103;BME280;62853;46.166;3.640;2023-03-19T02:47:58;100948.41;;;10.27;100.00
74103;BME280;62853;46.166;3.640;2023-03-19T02:50:23;100963.28;;;10.28;100.00
74103;BME280;62853;46.166;3.640;2023-03-19T02:52:49;100948.47;;;10.25;100.00
74103;BME280;62853;46.166;3.640;2023-03-19T02:55:14;100964.84;;;10.32;100.00
74103;BME280;62853;46.166;3.640;2023-03-19T02:57:43;100971.81;;;10.33;100.00
74103;BME280;62853;46.166;3.640;2023-03-19T03:00:09;100964.03;;;10.30;100.00
74103;BME280;62853;46.166;3.640;2023-03-19T03:02:35;100959.56;;;10.32;100.00
74103;BME280;62853;46.166;3.640;2023-03-19T03:05:00;100968.34;;;10.32;100.00
74103;BME280;62853;46.166;3.640;2023-03-19T03:07:26;100962.66;;;10.40;100.00
74103;BME280;62853;46.166;3.640;2023-03-19T03:09:51;100958.56;;;10.34;100.00
74103;BME280;62853;46.166;3.640;2023-03-19T03:12:17;100960.25;;;10.35;100.00
74103;BME280;62853;46.166;3.640;2023-03-19T03:14:42;100954.00;;;10.38;100.00
74103;BME280;62853;46.166;3.640;2023-03-19T03:17:08;100955.09;;;10.34;100.00
74103;BME280;62853;46.166;3.640;2023-03-19T03:19:34;100962.13;;;10.33;100.00
74103;BME280;62853;46.166;3.640;2023-03-19T03:21:59;100963.97;;;10.31;100.00
74103;BME280;62853;46.166;3.640;2023-03-19T03:24:26;100969.19;;;10.33;100.00
74103;BME280;62853;46.166;3.640;2023-03-19T03:26:51;100963.13;;;10.31;100.00
74103;BME280;62853;46.166;3.640;2023-03-19T03:29:16;100964.88;;;10.30;100.00
74103;BME280;62853;46.166;3.640;2023-03-19T03:31:42;100965.75;;;10.31;100.00
74103;BME280;62853;46.166;3.640;2023-03-19T03:34:08;100966.06;;;10.24;100.00
74103;BME280;62853;46.166;3.640;2023-03-19T03:36:33;100965.97;;;10.26;100.00
74103;BME280;62853;46.166;3.640;2023-03-19T03:38:58;100979.00;;;10.29;100.00
74103;BME280;62853;46.166;3.640;2023-03-19T03:41:24;100970.97;;;10.32;100.00
74103;BME280;62853;46.166;3.640;2023-03-19T03:43:50;100963.00;;;10.34;100.00
74103;BME280;62853;46.166;3.640;2023-03-19T03:46:15;100977.19;;;10.30;100.00
74103;BME280;62853;46.166;3.640;2023-03-19T03:48:40;100980.69;;;10.30;100.00
74103;BME280;62853;46.166;3.640;2023-03-19T03:51:06;100984.19;;;10.31;100.00
74103;BME280;62853;46.166;3.640;2023-03-19T03:53:31;100984.91;;;10.34;100.00
74103;BME280;62853;46.166;3.640;2023-03-19T03:55:57;100988.16;;;10.39;100.00
74103;BME280;62853;46.166;3.640;2023-03-19T03:58:22;100992.72;;;10.36;100.00
74103;BME280;62853;46.166;3.640;2023-03-19T04:00:48;100993.72;;;10.33;100.00
74103;BME280;62853;46.166;3.640;2023-03-19T04:03:14;100996.28;;;10.35;100.00
74103;BME280;62853;46.166;3.640;2023-03-19T04:05:42;100991.38;;;10.27;100.00
74103;BME280;62853;46.166;3.640;2023-03-19T04:08:08;100976.75;;;10.21;100.00
74103;BME280;62853;46.166;3.640;2023-03-19T04:10:33;100983.94;;;10.18;100.00
74103;BME280;62853;46.166;3.640;2023-03-19T04:13:01;100984.78;;;10.18;100.00
74103;BME280;62853;46.166;3.640;2023-03-19T04:15:26;100977.91;;;10.16;100.00
74103;BME280;62853;46.166;3.640;2023-03-19T04:17:52;100980.84;;;10.10;100.00
74103;BME280;62853;46.166;3.640;2023-03-19T04:20:17;100984.72;;;10.02;100.00
74103;BME280;62853;46.166;3.640;2023-03-19T04:22:44;100980.78;;;9.94;100.00
74103;BME280;62853;46.166;3.640;2023-03-19T04:25:09;100977.38;;;9.92;100.00
74103;BME280;62853;46.166;3.640;2023-03-19T04:27:35;100992.28;;;9.91;100.00
74103;BME280;62853;46.166;3.640;2023-03-19T04:30:01;100978.84;;;9.80;100.00
74103;BME280;62853;46.166;3.640;2023-03-19T04:32:26;100991.13;;;9.79;100.00
74103;BME280;62853;46.166;3.640;2023-03-19T04:34:52;100984.41;;;9.74;100.00
74103;BME280;62853;46.166;3.640;2023-03-19T04:37:17;100989.66;;;9.74;100.00
74103;BME280;62853;46.166;3.640;2023-03-19T04:39:42;100989.25;;;9.64;100.00
74103;BME280;62853;46.166;3.640;2023-03-19T04:42:09;101000.78;;;9.61;100.00
74103;BME280;62853;46.166;3.640;2023-03-19T04:44:35;100989.16;;;9.48;100.00
74103;BME280;62853;46.166;3.640;2023-03-19T04:47:02;100981.59;;;9.40;100.00
74103;BME280;62853;46.166;3.640;2023-03-19T04:49:27;100997.72;;;9.52;100.00
74103;BME280;62853;46.166;3.640;2023-03-19T04:51:53;101000.44;;;9.50;100.00
74103;BME280;62853;46.166;3.640;2023-03-19T04:54:18;100990.97;;;9.46;100.00
74103;BME280;62853;46.166;3.640;2023-03-19T04:56:44;100997.38;;;9.40;100.00
74103;BME280;62853;46.166;3.640;2023-03-19T04:59:10;101015.66;;;9.43;100.00
74103;BME280;62853;46.166;3.640;2023-03-19T05:01:35;101012.81;;;9.48;100.00
74103;BME280;62853;46.166;3.640;2023-03-19T05:04:01;101002.28;;;9.48;100.00
74103;BME280;62853;46.166;3.640;2023-03-19T05:06:26;101012.81;;;9.48;100.00
74103;BME280;62853;46.166;3.640;2023-03-19T05:08:52;101012.75;;;9.49;100.00
74103;BME280;62853;46.166;3.640;2023-03-19T05:11:17;101018.63;;;9.55;100.00
74103;BME280;62853;46.166;3.640;2023-03-19T05:13:43;101013.28;;;9.56;100.00
74103;BME280;62853;46.166;3.640;2023-03-19T05:16:08;101019.88;;;9.46;100.00
74103;BME280;62853;46.166;3.640;2023-03-19T05:18:34;101013.22;;;9.39;100.00
74103;BME280;62853;46.166;3.640;2023-03-19T05:21:00;101017.00;;;9.33;100.00
74103;BME280;62853;46.166;3.640;2023-03-19T05:23:25;101025.09;;;9.28;100.00
74103;BME280;62853;46.166;3.640;2023-03-19T05:25:51;101027.66;;;9.30;100.00
74103;BME280;62853;46.166;3.640;2023-03-19T05:28:17;101023.38;;;9.27;100.00
74103;BME280;62853;46.166;3.640;2023-03-19T05:30:42;101027.59;;;9.31;100.00
74103;BME280;62853;46.166;3.640;2023-03-19T05:33:08;101030.09;;;9.35;100.00
74103;BME280;62853;46.166;3.640;2023-03-19T05:35:33;101020.41;;;9.35;100.00
74103;BME280;62853;46.166;3.640;2023-03-19T05:37:59;101030.56;;;9.43;100.00
74103;BME280;62853;46.166;3.640;2023-03-19T05:40:26;101024.09;;;9.50;100.00
74103;BME280;62853;46.166;3.640;2023-03-19T05:42:52;101032.63;;;9.55;100.00
74103;BME280;62853;46.166;3.640;2023-03-19T05:45:17;101036.09;;;9.56;100.00
74103;BME280;62853;46.166;3.640;2023-03-19T05:47:45;101032.63;;;9.55;100.00
74103;BME280;62853;46.166;3.640;2023-03-19T05:50:10;101042.06;;;9.59;100.00
74103;BME280;62853;46.166;3.640;2023-03-19T05:52:36;101048.88;;;9.63;100.00
74103;BME280;62853;46.166;3.640;2023-03-19T05:55:02;101045.63;;;9.58;100.00
74103;BME280;62853;46.166;3.640;2023-03-19T05:57:29;101038.09;;;9.50;100.00
74103;BME280;62853;46.166;3.640;2023-03-19T05:59:54;101045.19;;;9.48;100.00
74103;BME280;62853;46.166;3.640;2023-03-19T06:02:19;101050.59;;;9.45;100.00
74103;BME280;62853;46.166;3.640;2023-03-19T06:04:45;101049.53;;;9.49;100.00
74103;BME280;62853;46.166;3.640;2023-03-19T06:07:10;101061.03;;;9.47;100.00
74103;BME280;62853;46.166;3.640;2023-03-19T06:09:36;101045.63;;;9.39;100.00
74103;BME280;62853;46.166;3.640;2023-03-19T06:12:01;101063.94;;;9.41;100.00
74103;BME280;62853;46.166;3.640;2023-03-19T06:14:27;101068.56;;;9.36;100.00
74103;BME280;62853;46.166;3.640;2023-03-19T06:16:52;101075.53;;;9.37;100.00
74103;BME280;62853;46.166;3.640;2023-03-19T06:19:17;101073.81;;;9.36;100.00
74103;BME280;62853;46.166;3.640;2023-03-19T06:21:43;101082.34;;;9.41;100.00
74103;BME280;62853;46.166;3.640;2023-03-19T06:24:08;101070.28;;;9.37;100.00
74103;BME280;62853;46.166;3.640;2023-03-19T06:26:34;101083.94;;;9.45;100.00
74103;BME280;62853;46.166;3.640;2023-03-19T06:29:00;101082.22;;;9.44;100.00
74103;BME280;62853;46.166;3.640;2023-03-19T06:31:25;101080.53;;;9.43;100.00
74103;BME280;62853;46.166;3.640;2023-03-19T06:33:52;101080.53;;;9.43;100.00
74103;BME280;62853;46.166;3.640;2023-03-19T06:36:17;101080.53;;;9.43;100.00
74103;BME280;62853;46.166;3.640;2023-03-19T06:38:43;101084.91;;;9.42;100.00
74103;BME280;62853;46.166;3.640;2023-03-19T06:41:08;101089.31;;;9.42;100.00
74103;BME280;62853;46.166;3.640;2023-03-19T06:43:33;101091.81;;;9.45;100.00
74103;BME280;62853;46.166;3.640;2023-03-19T06:46:04;101093.75;;;9.41;100.00
74103;BME280;62853;46.166;3.640;2023-03-19T06:48:32;101096.38;;;9.41;100.00
74103;BME280;62853;46.166;3.640;2023-03-19T06:50:57;101096.50;;;9.38;100.00
74103;BME280;62853;46.166;3.640;2023-03-19T06:53:23;101097.06;;;9.45;100.00
74103;BME280;62853;46.166;3.640;2023-03-19T06:55:48;101097.59;;;9.53;100.00
74103;BME280;62853;46.166;3.640;2023-03-19T06:58:13;101096.94;;;9.67;100.00
74103;BME280;62853;46.166;3.640;2023-03-19T07:00:39;101097.69;;;9.88;100.00
74103;BME280;62853;46.166;3.640;2023-03-19T07:03:05;101100.91;;;10.66;100.00
74103;BME280;62853;46.166;3.640;2023-03-19T07:05:31;101093.31;;;12.69;100.00
74103;BME280;62853;46.166;3.640;2023-03-19T07:07:57;101098.78;;;14.48;100.00
74103;BME280;62853;46.166;3.640;2023-03-19T07:10:22;101092.00;;;15.59;100.00
74103;BME280;62853;46.166;3.640;2023-03-19T07:12:48;101095.19;;;16.26;100.00
74103;BME280;62853;46.166;3.640;2023-03-19T07:15:13;101087.94;;;16.28;100.00
74103;BME280;62853;46.166;3.640;2023-03-19T07:17:39;101098.81;;;15.51;100.00
74103;BME280;62853;46.166;3.640;2023-03-19T07:20:05;101106.50;;;14.78;100.00
74103;BME280;62853;46.166;3.640;2023-03-19T07:22:31;101101.22;;;13.98;100.00
74103;BME280;62853;46.166;3.640;2023-03-19T07:24:56;101116.34;;;13.40;100.00
74103;BME280;62853;46.166;3.640;2023-03-19T07:27:22;101102.31;;;12.95;100.00
74103;BME280;62853;46.166;3.640;2023-03-19T07:29:48;101114.97;;;12.90;100.00
74103;BME280;62853;46.166;3.640;2023-03-19T07:32:14;101124.75;;;13.47;100.00
74103;BME280;62853;46.166;3.640;2023-03-19T07:34:40;101122.84;;;13.63;100.00
74103;BME280;62853;46.166;3.640;2023-03-19T07:37:05;101128.69;;;13.54;100.00
74103;BME280;62853;46.166;3.640;2023-03-19T07:39:31;101126.03;;;13.25;100.00
74103;BME280;62853;46.166;3.640;2023-03-19T07:41:57;101124.03;;;13.00;100.00
74103;BME280;62853;46.166;3.640;2023-03-19T07:44:22;101134.34;;;13.05;100.00
74103;BME280;62853;46.166;3.640;2023-03-19T07:46:48;101136.81;;;13.22;100.00
74103;BME280;62853;46.166;3.640;2023-03-19T07:49:13;101122.59;;;13.39;100.00
74103;BME280;62853;46.166;3.640;2023-03-19T07:51:38;101129.66;;;13.94;100.00
74103;BME280;62853;46.166;3.640;2023-03-19T07:54:04;101127.84;;;15.15;100.00
74103;BME280;62853;46.166;3.640;2023-03-19T07:56:29;101119.84;;;16.39;100.00
74103;BME280;62853;46.166;3.640;2023-03-19T07:58:55;101117.75;;;17.59;100.00
74103;BME280;62853;46.166;3.640;2023-03-19T08:01:20;101128.75;;;17.99;100.00
74103;BME280;62853;46.166;3.640;2023-03-19T08:03:46;101122.06;;;19.22;100.00
74103;BME280;62853;46.166;3.640;2023-03-19T08:06:12;101127.66;;;20.00;100.00
74103;BME280;62853;46.166;3.640;2023-03-19T08:08:38;101131.47;;;19.97;100.00
74103;BME280;62853;46.166;3.640;2023-03-19T08:11:03;101121.78;;;19.65;100.00
74103;BME280;62853;46.166;3.640;2023-03-19T08:13:29;101122.56;;;19.06;100.00
74103;BME280;62853;46.166;3.640;2023-03-19T08:15:55;101125.34;;;18.30;100.00
74103;BME280;62853;46.166;3.640;2023-03-19T08:18:21;101124.03;;;17.92;100.00
74103;BME280;62853;46.166;3.640;2023-03-19T08:20:47;101143.66;;;17.68;100.00
74103;BME280;62853;46.166;3.640;2023-03-19T08:23:13;101139.88;;;17.03;100.00
74103;BME280;62853;46.166;3.640;2023-03-19T08:25:39;101147.84;;;16.56;100.00
74103;BME280;62853;46.166;3.640;2023-03-19T08:28:05;101147.03;;;16.07;100.00
74103;BME280;62853;46.166;3.640;2023-03-19T08:30:31;101140.81;;;15.70;100.00
74103;BME280;62853;46.166;3.640;2023-03-19T08:32:57;101150.19;;;15.62;100.00
74103;BME280;62853;46.166;3.640;2023-03-19T08:35:23;101153.16;;;15.58;100.00
74103;BME280;62853;46.166;3.640;2023-03-19T08:37:51;101163.41;;;15.25;100.00
74103;BME280;62853;46.166;3.640;2023-03-19T08:40:17;101163.03;;;14.66;100.00
74103;BME280;62853;46.166;3.640;2023-03-19T08:42:42;101166.91;;;14.33;100.00
74103;BME280;62853;46.166;3.640;2023-03-19T08:45:09;101165.34;;;14.16;100.00
74103;BME280;62853;46.166;3.640;2023-03-19T08:47:35;101166.22;;;14.17;100.00
74103;BME280;62853;46.166;3.640;2023-03-19T08:50:00;101176.06;;;14.14;100.00
74103;BME280;62853;46.166;3.640;2023-03-19T08:52:26;101173.25;;;14.03;100.00
74103;BME280;62853;46.166;3.640;2023-03-19T08:54:51;101174.81;;;13.93;100.00
74103;BME280;62853;46.166;3.640;2023-03-19T08:57:17;101173.38;;;14.02;100.00
74103;BME280;62853;46.166;3.640;2023-03-19T08:59:42;101178.28;;;14.62;100.00
74103;BME280;62853;46.166;3.640;2023-03-19T09:02:09;101176.22;;;15.57;100.00
74103;BME280;62853;46.166;3.640;2023-03-19T09:04:38;101175.16;;;16.10;100.00
74103;BME280;62853;46.166;3.640;2023-03-19T09:07:04;101181.19;;;16.25;100.00
74103;BME280;62853;46.166;3.640;2023-03-19T09:09:30;101179.47;;;16.24;100.00
74103;BME280;62853;46.166;3.640;2023-03-19T09:11:55;101174.25;;;15.98;100.00
74103;BME280;62853;46.166;3.640;2023-03-19T09:14:21;101186.56;;;15.36;100.00
74103;BME280;62853;46.166;3.640;2023-03-19T09:16:47;101189.19;;;14.98;100.00
74103;BME280;62853;46.166;3.640;2023-03-19T09:19:12;101196.91;;;14.88;100.00
74103;BME280;62853;46.166;3.640;2023-03-19T09:21:38;101201.81;;;14.67;100.00
74103;BME280;62853;46.166;3.640;2023-03-19T09:24:04;101201.22;;;14.89;100.00
74103;BME280;62853;46.166;3.640;2023-03-19T09:26:30;101195.59;;;14.68;100.00
74103;BME280;62853;46.166;3.640;2023-03-19T09:28:56;101200.78;;;14.42;100.00
74103;BME280;62853;46.166;3.640;2023-03-19T09:31:22;101204.16;;;14.44;100.00
74103;BME280;62853;46.166;3.640;2023-03-19T09:33:48;101206.47;;;14.36;100.00
74103;BME280;62853;46.166;3.640;2023-03-19T09:36:13;101207.25;;;14.24;100.00
74103;BME280;62853;46.166;3.640;2023-03-19T09:38:38;101209.09;;;14.09;100.00
74103;BME280;62853;46.166;3.640;2023-03-19T09:44:12;101207.97;;;14.40;100.00
74103;BME280;62853;46.166;3.640;2023-03-19T09:46:53;101205.47;;;14.24;100.00
74103;BME280;62853;46.166;3.640;2023-03-19T09:49:27;101208.94;;;14.66;100.00
74103;BME280;62853;46.166;3.640;2023-03-19T09:51:55;101220.56;;;15.04;100.00
74103;BME280;62853;46.166;3.640;2023-03-19T09:54:31;101217.34;;;14.73;100.00
74103;BME280;62853;46.166;3.640;2023-03-19T09:56:57;101216.44;;;14.60;100.00
74103;BME280;62853;46.166;3.640;2023-03-19T09:59:25;101225.47;;;14.70;100.00
74103;BME280;62853;46.166;3.640;2023-03-19T10:02:23;101215.84;;;14.69;100.00
74103;BME280;62853;46.166;3.640;2023-03-19T10:13:33;101220.44;;;14.80;100.00
74103;BME280;62853;46.166;3.640;2023-03-19T10:16:00;101219.78;;;14.76;100.00
74103;BME280;62853;46.166;3.640;2023-03-19T10:18:30;101226.41;;;14.96;100.00
74103;BME280;62853;46.166;3.640;2023-03-19T10:26:09;101214.81;;;14.57;100.00
74103;BME280;62853;46.166;3.640;2023-03-19T10:28:35;101219.06;;;14.87;100.00
74103;BME280;62853;46.166;3.640;2023-03-19T10:33:55;101240.66;;;14.54;100.00
74103;BME280;62853;46.166;3.640;2023-03-19T10:36:26;101228.94;;;14.16;100.00
74103;BME280;62853;46.166;3.640;2023-03-19T10:38:54;101231.91;;;13.97;100.00
74103;BME280;62853;46.166;3.640;2023-03-19T10:44:30;101232.97;;;13.80;100.00
74103;BME280;62853;46.166;3.640;2023-03-19T10:47:03;101234.56;;;13.68;100.00
74103;BME280;62853;46.166;3.640;2023-03-19T10:49:34;101226.25;;;13.60;100.00
74103;BME280;62853;46.166;3.640;2023-03-19T10:52:00;101235.44;;;13.83;100.00
74103;BME280;62853;46.166;3.640;2023-03-19T10:54:27;101236.66;;;13.92;100.00
74103;BME280;62853;46.166;3.640;2023-03-19T10:56:58;101226.22;;;14.03;100.00
74103;BME280;62853;46.166;3.640;2023-03-19T11:01:56;101244.72;;;14.32;100.00
74103;BME280;62853;46.166;3.640;2023-03-19T11:04:23;101234.81;;;14.48;100.00
74103;BME280;62853;46.166;3.640;2023-03-19T11:07:11;101242.97;;;14.45;100.00
74103;BME280;62853;46.166;3.640;2023-03-19T11:09:39;101249.47;;;14.27;100.00
74103;BME280;62853;46.166;3.640;2023-03-19T11:12:31;101241.16;;;14.19;100.00
74103;BME280;62853;46.166;3.640;2023-03-19T11:14:59;101254.97;;;14.24;100.00
74103;BME280;62853;46.166;3.640;2023-03-19T11:17:38;101244.94;;;14.14;100.00
74103;BME280;62853;46.166;3.640;2023-03-19T11:20:29;101243.16;;;14.15;100.00
74103;BME280;62853;46.166;3.640;2023-03-19T11:22:57;101244.28;;;14.11;100.00
74103;BME280;62853;46.166;3.640;2023-03-19T11:25:41;101231.13;;;14.09;100.00
74103;BME280;62853;46.166;3.640;2023-03-19T11:36:12;101254.16;;;14.36;100.00
74103;BME280;62853;46.166;3.640;2023-03-19T11:38:53;101259.69;;;14.19;100.00
74103;BME280;62853;46.166;3.640;2023-03-19T11:44:24;101246.91;;;14.25;100.00
74103;BME280;62853;46.166;3.640;2023-03-19T11:47:04;101259.06;;;14.42;100.00
74103;BME280;62853;46.166;3.640;2023-03-19T11:49:57;101255.06;;;14.49;100.00
74103;BME280;62853;46.166;3.640;2023-03-19T11:55:35;101249.47;;;14.27;100.00
74103;BME280;62853;46.166;3.640;2023-03-19T12:01:19;101254.41;;;14.04;100.00
74103;BME280;62853;46.166;3.640;2023-03-19T12:06:41;101252.50;;;14.06;100.00
74103;BME280;62853;46.166;3.640;2023-03-19T12:19:30;101268.06;;;14.40;100.00
74103;BME280;62853;46.166;3.640;2023-03-19T12:22:18;101262.38;;;14.46;100.00
74103;BME280;62853;46.166;3.640;2023-03-19T12:35:30;101261.47;;;14.74;100.00
74103;BME280;62853;46.166;3.640;2023-03-19T12:41:06;101247.00;;;14.65;100.00
74103;BME280;62853;46.166;3.640;2023-03-19T12:49:05;101256.09;;;14.88;100.00
74103;BME280;62853;46.166;3.640;2023-03-19T12:51:35;101252.84;;;14.98;100.00
74103;BME280;62853;46.166;3.640;2023-03-19T12:54:13;101262.41;;;15.13;100.00
74103;BME280;62853;46.166;3.640;2023-03-19T12:56:50;101263.78;;;15.06;100.00
74103;BME280;62853;46.166;3.640;2023-03-19T12:59:31;101261.53;;;15.00;100.00
74103;BME280;62853;46.166;3.640;2023-03-19T13:04:38;101268.53;;;15.01;100.00
74103;BME280;62853;46.166;3.640;2023-03-19T13:10:18;101257.25;;;14.84;100.00
74103;BME280;62853;46.166;3.640;2023-03-19T13:12:46;101266.41;;;14.93;100.00
